Terminal Aerodrome Forecast
Issued by NWS Sioux Falls, SD

Home | Current Version | Previous Version | Graphics & Text | Print | Product List | Glossary Off
Versions: 1 2 3 4 5 6 7 8 9 10 11 12 13

000
FTUS43 KFSD 081100
TAFFSD
TAF
KFSD 081120Z 0812/0912 30010KT P6SM SKC
     FM081400 33014G21KT P6SM SCT030
     FM081800 32016G26KT P6SM BKN040
     FM082300 35010KT P6SM SCT045
     FM090200 VRB04KT P6SM SKC=

USA.gov is the U.S. government's official web portal to all federal, state and local government web resources and services.